createdAt,value
2018-08-20T00:00:35.514Z,10.80
2018-08-20T00:10:39.415Z,10.50
2018-08-20T00:20:40.683Z,10.73
2018-08-20T00:30:41.950Z,11.33
2018-08-20T00:40:43.220Z,10.87
2018-08-20T00:50:44.503Z,11.77
2018-08-20T01:00:46.551Z,10.60
2018-08-20T01:10:47.831Z,11.13
2018-08-20T01:20:49.107Z,11.87
2018-08-20T01:30:50.402Z,11.87
2018-08-20T01:40:52.427Z,11.87
2018-08-20T01:50:53.685Z,11.90
2018-08-20T02:00:55.709Z,12.07
2018-08-20T02:10:57.783Z,12.70
2018-08-20T02:20:59.060Z,12.50
2018-08-20T02:31:00.331Z,12.77
2018-08-20T02:41:02.437Z,13.10
2018-08-20T02:51:04.479Z,12.33
2018-08-20T03:01:05.773Z,12.63
2018-08-20T03:11:07.046Z,13.03
2018-08-20T03:21:08.321Z,13.30
2018-08-20T03:31:10.382Z,12.83
2018-08-20T03:41:11.648Z,13.67
2018-08-20T03:51:12.913Z,13.93
2018-08-20T04:01:14.192Z,14.23
2018-08-20T04:11:15.470Z,12.93
2018-08-20T04:21:16.761Z,13.13
2018-08-20T04:31:18.035Z,14.17
2018-08-20T04:41:19.351Z,14.17
2018-08-20T04:51:20.873Z,13.80
2018-08-20T05:01:21.976Z,13.37
2018-08-20T05:11:23.260Z,12.87
2018-08-20T05:21:25.606Z,13.87
2018-08-20T05:31:26.847Z,13.37
2018-08-20T05:41:28.900Z,13.23
2018-08-20T05:51:31.768Z,11.87
2018-08-20T06:01:33.010Z,11.90
2018-08-20T06:11:35.065Z,11.33
2018-08-20T06:21:36.328Z,11.07
2018-08-20T06:31:38.358Z,10.83
2018-08-20T06:41:39.699Z,10.13
2018-08-20T06:51:40.953Z,9.70
2018-08-20T07:01:42.240Z,9.93
2018-08-20T07:11:43.511Z,10.13
2018-08-20T07:21:44.773Z,8.97
2018-08-20T07:31:46.049Z,9.00
2018-08-20T07:41:47.336Z,9.17
2018-08-20T07:51:49.420Z,9.15
2018-08-20T08:01:50.701Z,9.23
2018-08-20T08:11:52.762Z,9.45
2018-08-20T08:21:54.036Z,8.27
2018-08-20T08:31:55.298Z,8.57
2018-08-20T08:41:56.557Z,8.40
2018-08-20T08:51:57.853Z,6.95
2018-08-20T09:01:59.091Z,7.53
2018-08-20T09:12:01.101Z,6.10
2018-08-20T09:22:03.115Z,7.07
2018-08-20T09:32:05.125Z,6.47
2018-08-20T09:42:06.984Z,6.30
2018-08-20T09:52:09.765Z,5.75
2018-08-20T10:02:12.643Z,6.12
2018-08-20T10:12:14.001Z,5.07
2018-08-20T10:22:16.372Z,5.37
2018-08-20T10:32:17.713Z,5.55
2018-08-20T10:42:19.067Z,6.37
2018-08-20T10:52:20.588Z,6.25
2018-08-20T11:02:22.657Z,6.95
2018-08-20T11:12:23.964Z,7.22
2018-08-20T11:22:25.256Z,7.22
2018-08-20T11:32:26.514Z,6.65
2018-08-20T11:42:27.874Z,7.12
2018-08-20T11:52:29.131Z,7.12
2018-08-20T12:02:30.442Z,7.65
2018-08-20T12:12:32.633Z,7.12
2018-08-20T12:22:33.911Z,7.30
2018-08-20T12:32:35.207Z,5.68
2018-08-20T12:42:38.390Z,6.32
2018-08-20T12:52:39.791Z,6.55
2018-08-20T13:02:42.579Z,6.22
2018-08-20T13:12:43.960Z,6.12
2018-08-20T13:22:45.239Z,6.60
2018-08-20T13:32:47.188Z,7.37
2018-08-20T13:42:48.548Z,7.67
2018-08-20T13:52:49.852Z,5.80
2018-08-20T14:02:51.870Z,6.53
2018-08-20T14:12:53.146Z,6.03
2018-08-20T14:22:56.251Z,4.93
2018-08-20T14:32:57.498Z,5.67
2018-08-20T14:42:58.777Z,5.00
2018-08-20T14:53:00.099Z,5.13
2018-08-20T15:03:01.378Z,5.67
2018-08-20T15:13:02.739Z,5.50
2018-08-20T15:23:04.010Z,6.30
2018-08-20T15:33:05.258Z,6.70
2018-08-20T15:43:06.495Z,6.77
2018-08-20T15:53:07.856Z,6.27
2018-08-20T16:03:09.032Z,6.63
2018-08-20T16:13:11.053Z,6.93
2018-08-20T16:23:13.090Z,7.27
2018-08-20T16:43:21.251Z,8.13
2018-08-20T16:53:22.508Z,8.00
2018-08-20T17:03:23.774Z,8.60
2018-08-20T17:13:25.788Z,8.93
2018-08-20T17:23:27.066Z,9.03
2018-08-20T17:33:28.326Z,10.10
2018-08-20T17:43:29.605Z,10.63
2018-08-20T17:53:30.860Z,9.80
2018-08-20T18:03:32.150Z,9.73
2018-08-20T18:13:33.417Z,9.97
2018-08-20T18:23:34.781Z,9.83
2018-08-20T18:33:36.066Z,9.27
2018-08-20T18:43:37.381Z,10.33
2018-08-20T18:53:38.657Z,9.50
2018-08-20T19:03:39.889Z,9.23
2018-08-20T19:13:41.136Z,9.10
2018-08-20T19:23:42.453Z,9.13
2018-08-20T19:33:43.767Z,8.00
2018-08-20T19:43:45.097Z,7.47
2018-08-20T19:53:46.335Z,7.53
2018-08-20T20:03:47.601Z,6.73
2018-08-20T20:13:48.872Z,7.50
2018-08-20T20:23:50.211Z,7.30
2018-08-20T20:33:51.435Z,6.73
2018-08-20T20:43:52.702Z,7.63
2018-08-20T20:53:54.172Z,8.80
2018-08-20T21:03:56.211Z,7.83
2018-08-20T21:13:57.465Z,7.80
2018-08-20T21:23:58.698Z,8.20
2018-08-20T21:34:00.009Z,8.63
2018-08-20T21:44:01.275Z,8.90
2018-08-20T21:54:02.509Z,8.70
2018-08-20T22:04:03.831Z,9.20
2018-08-20T22:14:05.091Z,8.90
2018-08-20T22:24:06.347Z,9.13
2018-08-20T22:34:08.460Z,10.37
2018-08-20T22:44:09.766Z,9.77
2018-08-20T22:54:11.807Z,11.03
2018-08-20T23:04:13.090Z,10.07
2018-08-20T23:14:14.344Z,9.87
2018-08-20T23:24:15.616Z,9.73
2018-08-20T23:34:16.893Z,9.83
2018-08-20T23:44:18.129Z,10.40
2018-08-20T23:54:19.398Z,10.50
